createdAt,value
2023-03-20T00:02:26.470Z,99547.77
2023-03-20T00:04:53.000Z,99547.94
2023-03-20T00:07:21.702Z,99539.64
2023-03-20T00:09:48.824Z,99538.63
2023-03-20T00:12:21.796Z,99540.90
2023-03-20T00:14:51.028Z,99537.28
2023-03-20T00:17:20.525Z,99531.00
2023-03-20T00:19:49.269Z,99534.17
2023-03-20T00:22:18.366Z,99532.54
2023-03-20T00:24:47.853Z,99534.56
2023-03-20T00:27:19.002Z,99534.81
2023-03-20T00:29:48.845Z,99536.09
2023-03-20T00:32:15.782Z,99535.42
2023-03-20T00:34:42.636Z,99535.23
2023-03-20T00:37:12.857Z,99534.70
2023-03-20T00:39:40.871Z,99531.21
2023-03-20T00:42:18.101Z,99528.86
2023-03-20T00:44:55.542Z,99525.17
2023-03-20T00:47:24.780Z,99528.48
2023-03-20T00:49:55.329Z,99528.71
2023-03-20T00:52:23.073Z,99518.23
2023-03-20T00:54:51.520Z,99519.82
2023-03-20T00:57:23.537Z,99517.14
2023-03-20T00:59:58.340Z,99518.84
2023-03-20T01:02:28.180Z,99516.04
2023-03-20T01:04:55.326Z,99516.21
2023-03-20T01:07:24.345Z,99516.21
2023-03-20T01:26:42.415Z,99534.99
2023-03-20T01:29:21.031Z,99528.02
2023-03-20T01:31:50.734Z,99528.85
2023-03-20T01:34:22.041Z,99528.67
2023-03-20T01:36:53.576Z,99524.77
2023-03-20T01:39:25.389Z,99525.68
2023-03-20T01:41:56.593Z,99528.88
2023-03-20T01:44:29.210Z,99528.75
2023-03-20T01:47:01.881Z,99527.97
2023-03-20T01:49:32.354Z,99525.27
2023-03-20T01:52:06.537Z,99523.28
2023-03-20T01:54:40.974Z,99523.98
2023-03-20T01:57:16.575Z,99522.01
2023-03-20T01:59:49.384Z,99514.98
2023-03-20T02:02:22.866Z,99518.91
2023-03-20T02:04:57.137Z,99512.30
2023-03-20T02:07:25.850Z,99514.61
2023-03-20T02:10:36.758Z,99512.87
2023-03-20T02:14:11.760Z,99510.73
2023-03-20T02:17:22.338Z,99515.52
2023-03-20T02:20:57.104Z,99516.06
2023-03-20T02:24:05.067Z,99519.80
2023-03-20T02:26:54.546Z,99517.47
2023-03-20T02:29:22.667Z,99516.36
2023-03-20T02:32:28.722Z,99521.91
2023-03-20T02:35:07.956Z,99523.14
2023-03-20T02:37:48.436Z,99524.17
2023-03-20T02:40:22.023Z,99524.18
2023-03-20T02:43:13.723Z,99520.36
2023-03-20T02:45:48.295Z,99522.66
2023-03-20T02:48:33.794Z,99516.88
2023-03-20T02:51:12.194Z,99516.67
2023-03-20T02:53:54.237Z,99514.74
2023-03-20T02:56:41.563Z,99514.71
2023-03-20T02:59:20.213Z,99512.95
2023-03-20T03:01:55.713Z,99510.85
2023-03-20T03:04:30.808Z,99508.74
2023-03-20T03:07:04.065Z,99506.98
2023-03-20T03:09:39.126Z,99505.34
2023-03-20T03:12:20.753Z,99492.52
2023-03-20T03:14:56.511Z,99484.39
2023-03-20T03:17:29.637Z,99490.91
2023-03-20T03:20:12.104Z,99497.45
2023-03-20T03:22:44.728Z,99505.38
2023-03-20T03:25:13.681Z,99507.65
2023-03-20T03:27:46.134Z,99507.27
2023-03-20T03:30:34.534Z,99506.34
2023-03-20T03:33:10.231Z,99505.89
2023-03-20T03:35:39.088Z,99508.40
2023-03-20T03:38:27.696Z,99494.18
2023-03-20T03:41:31.733Z,99490.89
2023-03-20T03:44:21.036Z,99497.42
2023-03-20T03:47:03.688Z,99496.58
2023-03-20T03:49:37.426Z,99497.23
2023-03-20T03:52:21.295Z,99495.27
2023-03-20T03:54:56.979Z,99495.47
2023-03-20T04:35:39.281Z,99509.86
2023-03-20T04:38:14.225Z,99503.78
2023-03-20T04:40:43.995Z,99504.36
2023-03-20T04:43:14.951Z,99504.45
2023-03-20T04:45:43.514Z,99504.40
2023-03-20T04:48:11.945Z,99506.70
2023-03-20T04:50:40.381Z,99506.29
2023-03-20T04:53:09.090Z,99508.63
2023-03-20T04:55:37.764Z,99511.05
2023-03-20T04:58:05.865Z,99515.20
2023-03-20T05:00:34.584Z,99520.91
2023-03-20T05:03:05.354Z,99519.80
2023-03-20T05:05:34.461Z,99521.73
2023-03-20T05:08:03.212Z,99522.18
2023-03-20T05:10:34.924Z,99519.55
2023-03-20T05:13:11.729Z,99518.44
2023-03-20T05:16:01.243Z,99522.66
2023-03-20T05:18:45.594Z,99520.33
2023-03-20T05:21:32.235Z,99512.85
2023-03-20T05:24:13.318Z,99510.79
2023-03-20T05:27:02.363Z,99509.27
2023-03-20T05:29:56.507Z,99508.02
2023-03-20T05:32:57.252Z,99510.92
2023-03-20T05:35:37.212Z,99511.04
2023-03-20T05:38:46.636Z,99511.84
2023-03-20T05:41:37.796Z,99512.85
2023-03-20T05:44:31.777Z,99508.48
2023-03-20T05:47:18.793Z,99508.92
2023-03-20T05:49:59.816Z,99513.02
2023-03-20T05:52:45.824Z,99516.30
2023-03-20T05:55:22.129Z,99517.88
2023-03-20T05:58:12.192Z,99517.70
2023-03-20T06:00:59.258Z,99520.31
2023-03-20T06:03:46.851Z,99525.43
2023-03-20T06:06:17.824Z,99530.52
2023-03-20T06:08:49.270Z,99533.30
2023-03-20T06:11:21.283Z,99537.85
2023-03-20T06:13:51.246Z,99532.95
2023-03-20T06:16:23.307Z,99532.23
2023-03-20T06:18:52.049Z,99533.66
2023-03-20T06:21:23.466Z,99534.23
2023-03-20T06:23:52.116Z,99537.39
2023-03-20T06:26:29.036Z,99539.61
2023-03-20T06:29:05.141Z,99543.54
2023-03-20T06:31:34.920Z,99545.91
2023-03-20T06:34:05.062Z,99544.67
2023-03-20T06:36:38.198Z,99547.83
2023-03-20T06:39:14.259Z,99552.92
2023-03-20T06:41:58.244Z,99552.63
2023-03-20T06:45:03.817Z,99551.20
2023-03-20T06:48:02.252Z,99557.86
2023-03-20T06:50:32.680Z,99560.08
2023-03-20T06:53:00.900Z,99561.45
2023-03-20T06:55:38.531Z,99559.69
2023-03-20T06:58:13.883Z,99560.32
2023-03-20T07:00:42.268Z,99555.92
2023-03-20T07:03:13.611Z,99559.86
2023-03-20T07:05:47.680Z,99565.14
2023-03-20T07:08:15.913Z,99564.81
2023-03-20T07:10:43.789Z,99560.80
2023-03-20T07:13:14.420Z,99562.55
2023-03-20T07:15:57.544Z,99560.48
2023-03-20T07:18:33.166Z,99560.52
2023-03-20T07:21:10.104Z,99563.31
2023-03-20T07:23:39.234Z,99563.99
2023-03-20T07:26:11.407Z,99562.78
2023-03-20T07:28:42.239Z,99563.13
2023-03-20T07:31:41.839Z,99560.65
2023-03-20T07:34:20.585Z,99555.52
2023-03-20T07:36:48.915Z,99558.52
2023-03-20T07:39:22.589Z,99554.86
2023-03-20T07:42:24.685Z,99550.88
2023-03-20T07:45:24.340Z,99551.64
2023-03-20T07:47:59.273Z,99553.01
2023-03-20T07:50:49.858Z,99551.37
2023-03-20T08:04:49.192Z,99561.02
2023-03-20T08:07:17.958Z,99561.08
2023-03-20T08:09:53.088Z,99560.47
2023-03-20T08:12:21.665Z,99566.52
2023-03-20T08:14:49.986Z,99559.09
2023-03-20T08:17:22.351Z,99555.53
2023-03-20T08:20:33.409Z,99560.54
2023-03-20T08:23:05.108Z,99565.85
2023-03-20T08:25:33.604Z,99579.50
2023-03-20T08:28:02.058Z,99574.43
2023-03-20T08:30:30.322Z,99562.58
2023-03-20T08:33:00.906Z,99616.79
2023-03-20T08:35:33.609Z,99594.88
2023-03-20T08:38:02.318Z,99566.20
2023-03-20T08:40:36.407Z,99567.73
2023-03-20T08:43:05.706Z,99567.95
2023-03-20T08:45:34.279Z,99575.77
2023-03-20T08:48:05.171Z,99584.99
2023-03-20T08:50:33.371Z,99590.23
2023-03-20T08:53:01.472Z,99595.98
2023-03-20T08:55:32.202Z,99603.96
2023-03-20T08:58:02.668Z,99609.91
2023-03-20T09:00:31.334Z,99608.73
2023-03-20T09:03:04.439Z,99613.30
2023-03-20T09:05:34.138Z,99614.95
2023-03-20T09:08:07.701Z,99618.04
2023-03-20T09:10:38.126Z,99624.10
2023-03-20T09:13:25.328Z,99627.02
2023-03-20T09:15:55.210Z,99625.81
2023-03-20T09:18:24.044Z,99625.55
2023-03-20T09:20:52.208Z,99622.67
2023-03-20T09:23:20.373Z,99625.05
2023-03-20T09:25:56.726Z,99627.23
2023-03-20T09:28:24.932Z,99630.00
2023-03-20T09:30:57.301Z,99626.23
2023-03-20T09:33:30.366Z,99619.76
2023-03-20T09:36:00.724Z,99625.71
2023-03-20T09:38:28.995Z,99619.84
2023-03-20T09:41:02.696Z,99624.93
2023-03-20T09:44:08.546Z,99629.34
2023-03-20T09:47:16.531Z,99634.89
2023-03-20T09:50:09.599Z,99634.41
2023-03-20T09:52:43.560Z,99636.27
2023-03-20T09:55:21.852Z,99637.06
2023-03-20T09:57:53.920Z,99638.70
2023-03-20T10:00:26.623Z,99632.86
2023-03-20T10:02:59.676Z,99628.00
2023-03-20T10:05:58.015Z,99630.41
2023-03-20T10:08:30.414Z,99629.92
2023-03-20T10:11:10.315Z,99635.20
2023-03-20T10:13:38.384Z,99629.89
2023-03-20T10:16:43.559Z,99629.45
2023-03-20T10:19:18.785Z,99632.52
2023-03-20T10:21:54.018Z,99637.33
2023-03-20T10:24:39.269Z,99634.60
2023-03-20T10:27:26.951Z,99633.53
2023-03-20T10:30:24.187Z,99631.53
2023-03-20T10:33:26.737Z,99633.61
2023-03-20T10:36:08.332Z,99634.11
2023-03-20T10:38:53.804Z,99633.02
2023-03-20T10:41:28.853Z,99635.95
2023-03-20T10:43:59.969Z,99638.20
2023-03-20T10:46:44.306Z,99643.41
2023-03-20T10:49:23.526Z,99649.98
2023-03-20T10:51:54.909Z,99645.33
2023-03-20T10:54:41.217Z,99645.48
2023-03-20T10:57:23.733Z,99651.42
2023-03-20T10:59:59.362Z,99655.54
2023-03-20T11:02:34.742Z,99661.59
2023-03-20T11:05:20.374Z,99651.08
2023-03-20T11:07:52.890Z,99644.30
2023-03-20T11:10:26.265Z,99638.05
2023-03-20T11:12:56.485Z,99636.06
2023-03-20T11:15:33.954Z,99663.10
2023-03-20T11:18:07.877Z,99631.58
2023-03-20T11:20:43.772Z,99616.91
2023-03-20T11:23:17.958Z,99611.19
2023-03-20T11:26:15.136Z,99612.23
2023-03-20T11:28:59.817Z,99608.69
2023-03-20T11:31:41.780Z,99602.02
2023-03-20T11:34:15.509Z,99596.15
2023-03-20T11:37:13.531Z,99588.23
2023-03-20T11:39:58.360Z,99581.33
2023-03-20T11:42:31.662Z,99578.58
2023-03-20T11:45:16.139Z,99571.83
2023-03-20T11:47:51.470Z,99568.20
2023-03-20T11:50:36.354Z,99564.51
2023-03-20T11:53:22.761Z,99560.91
2023-03-20T11:56:13.822Z,99557.52
2023-03-20T11:58:56.334Z,99551.97
2023-03-20T12:01:31.209Z,99555.23
2023-03-20T12:04:21.994Z,99557.86
2023-03-20T12:07:01.891Z,99558.15
2023-03-20T12:09:42.668Z,99557.83
2023-03-20T12:12:24.579Z,99557.34
2023-03-20T12:15:04.183Z,99557.69
2023-03-20T12:36:40.566Z,99545.05
2023-03-20T12:39:47.458Z,99539.16
2023-03-20T12:42:46.054Z,99540.94
2023-03-20T12:45:34.346Z,99540.98
2023-03-20T12:48:40.809Z,99535.95
2023-03-20T12:51:39.788Z,99535.82
2023-03-20T12:54:33.085Z,99536.98
2023-03-20T12:57:25.384Z,99533.10
2023-03-20T13:00:21.825Z,99533.85
2023-03-20T13:03:55.436Z,99532.91
2023-03-20T13:06:43.020Z,99533.10
2023-03-20T13:31:03.407Z,99531.80
2023-03-20T13:34:18.302Z,99518.73
2023-03-20T13:41:22.139Z,99513.55
2023-03-20T13:43:59.235Z,99520.02
2023-03-20T13:46:35.911Z,99520.80
2023-03-20T13:49:22.075Z,99518.48
2023-03-20T13:52:02.678Z,99519.59
2023-03-20T13:55:10.953Z,99519.42
2023-03-20T13:57:45.630Z,99529.89
2023-03-20T14:00:40.822Z,99527.56
2023-03-20T14:03:31.681Z,99536.48
2023-03-20T14:06:14.733Z,99548.25
2023-03-20T14:08:49.012Z,99561.59
2023-03-20T14:11:21.487Z,99587.30
2023-03-20T14:13:54.956Z,99573.80
2023-03-20T14:16:22.130Z,99554.67
2023-03-20T14:19:24.327Z,99539.65
2023-03-20T14:21:56.791Z,99524.91
2023-03-20T14:24:27.616Z,99516.73
2023-03-20T14:27:00.866Z,99518.31
2023-03-20T14:29:30.878Z,99515.86
2023-03-20T14:32:05.977Z,99491.28
2023-03-20T14:39:19.527Z,99470.38
2023-03-20T14:42:15.280Z,99466.41
2023-03-20T14:45:26.042Z,99466.98
2023-03-20T14:48:15.801Z,99463.05
2023-03-20T14:51:01.462Z,99464.62
2023-03-20T14:53:32.751Z,99468.65
2023-03-20T14:56:12.764Z,99473.14
2023-03-20T14:58:39.583Z,99464.34
2023-03-20T15:01:19.954Z,99478.06
2023-03-20T15:04:30.580Z,99488.66
2023-03-20T15:07:07.510Z,99493.80
2023-03-20T15:09:39.587Z,99495.02
2023-03-20T15:12:11.529Z,99493.33
2023-03-20T15:15:02.994Z,99497.38
2023-03-20T15:18:21.953Z,99511.23
2023-03-20T15:20:51.755Z,99512.40
2023-03-20T15:23:18.395Z,99518.71
2023-03-20T15:25:47.506Z,99506.03
2023-03-20T15:28:21.593Z,99494.95
2023-03-20T15:30:57.981Z,99477.64
2023-03-20T15:33:28.689Z,99465.14
2023-03-20T15:35:55.827Z,99464.27
2023-03-20T15:42:27.968Z,99464.10
2023-03-20T15:48:35.351Z,99480.06
2023-03-20T15:51:04.453Z,99493.54
2023-03-20T15:53:44.961Z,99502.98
2023-03-20T15:56:31.334Z,99498.30
2023-03-20T15:58:58.535Z,99503.42
2023-03-20T16:01:49.728Z,99503.29
2023-03-20T16:04:20.859Z,99509.85
2023-03-20T16:07:00.608Z,99514.97
2023-03-20T16:09:30.326Z,99512.55
2023-03-20T16:12:00.618Z,99509.90
2023-03-20T16:14:34.335Z,99509.70
2023-03-20T16:17:02.930Z,99507.58
2023-03-20T16:19:30.054Z,99508.90
2023-03-20T16:22:00.633Z,99513.73
2023-03-20T16:24:36.147Z,99495.28
2023-03-20T16:27:08.286Z,99487.66
2023-03-20T16:29:43.202Z,99487.22
2023-03-20T16:32:42.998Z,99486.05
2023-03-20T16:35:25.464Z,99486.79
2023-03-20T16:37:58.215Z,99491.34
2023-03-20T16:40:43.087Z,99478.61
2023-03-20T16:43:18.279Z,99476.18
2023-03-20T16:45:55.915Z,99475.40
2023-03-20T17:04:14.923Z,99465.19
2023-03-20T17:18:13.096Z,99458.15
2023-03-20T17:20:41.346Z,99461.79
2023-03-20T18:48:02.853Z,99368.64
2023-03-20T18:50:52.435Z,99364.75
2023-03-20T18:53:21.313Z,99359.91
2023-03-20T19:00:26.956Z,99357.98
2023-03-20T19:06:41.789Z,99346.63
2023-03-20T19:18:05.606Z,99325.20
2023-03-20T20:34:28.319Z,99188.39
2023-03-20T20:37:30.531Z,99175.00
2023-03-20T20:39:32.345Z,99172.05
2023-03-20T20:42:03.084Z,99164.58
2023-03-20T20:44:30.822Z,99161.70
2023-03-20T21:05:37.925Z,99165.50
2023-03-20T21:08:09.097Z,99144.66
2023-03-20T21:10:37.318Z,99131.02
2023-03-20T21:13:05.527Z,99125.88
2023-03-20T21:15:33.778Z,99117.23
2023-03-20T21:18:02.092Z,99109.80
2023-03-20T21:20:31.131Z,99096.17
2023-03-20T21:22:59.446Z,99085.98
2023-03-20T21:25:39.535Z,99078.98
2023-03-20T21:28:12.804Z,99070.94
2023-03-20T21:30:54.431Z,99062.51
2023-03-20T21:33:35.782Z,99055.63
2023-03-20T21:36:04.330Z,99053.95
2023-03-20T21:41:23.606Z,99052.20
2023-03-20T21:43:51.530Z,99046.91
2023-03-20T21:46:52.475Z,99044.79
2023-03-20T21:55:25.082Z,99029.13
2023-03-20T21:58:17.598Z,99022.36
2023-03-20T22:03:38.646Z,99018.98
2023-03-20T22:09:48.521Z,99017.52
2023-03-20T22:12:47.963Z,99015.59
2023-03-20T22:17:59.602Z,99012.77
2023-03-20T22:29:32.644Z,98989.95
2023-03-20T22:35:15.766Z,98977.33
2023-03-20T22:38:24.047Z,98968.90
2023-03-20T22:41:07.023Z,98983.93
2023-03-20T22:44:17.503Z,98996.78
2023-03-20T22:46:22.743Z,99010.80
2023-03-20T22:48:50.621Z,99021.34
2023-03-20T22:51:22.652Z,99025.83
2023-03-20T22:53:59.288Z,99027.55
2023-03-20T22:56:27.245Z,99027.48
